Flugplatz Fritzlar Army (ETHF)

Hier findest Du alle Informationen zum Flugplatz Fritzlar Army (ETHF).

Informationen für Piloten zum Flugplatz Fritzlar Army

Hier findest Du alle relevanten Informationen, die Du als Pilot benötigst, um Fritzlar Army anzufliegen.

Flugplatz: Fritzlar Army ICAO-Code: ETHF
Frequenz Turm: 122,100 Mhz GAFOR Gebiet: 43
Frequenz Ground: 122,100 Mhz Mogas: nein
Platzrunde: - Landegebühr: -
Platzhöhe: - Sunrise: 07:09 Uhr UTC
Pisten: 12/30 - 1.035 m x , Sunset: 15:18 Uhr UTC

Flugwetter am Flugplatz Fritzlar Army

Die METAR Information stammen aus EDVK (32.98 km entfernt).

METAR Code:
2021/12/03 16:20
EDVK 031620Z 18011G22KT 140V210 9999 SCT023 01/M02 Q1006

Flugschulen am Flugplatz Fritzlar Army

Am Flugplatz Fritzlar Army gibt es leider keine Flugschule.

Benachbarte Flugplätze und Flugschulen

Es gibt 16 weitere Flugplätze in einem Umkreis von 50 km um den Flugplatz Fritzlar Army.

Jetzt anmelden

Passwort vergessen

Umfrage Archiv

Welche Navigations-App nutzt Ihr im Cockpit

SkyDemon
49.5 %
VFRnav
21.3 %
Ich nutze eine andere App
19.7 %
Ich nutze gar keine App
4.8 %
EasyVFR
4.3 %
ForeFlight
0.5 %
Stimmen: 188 | Diskussion (45)
Anzeige: Roland Aircraft
Statistik Alle Mitglieder

Aktuell sind 42 Besucher online.

Anzeige: Pocket FMS